Time;durP1;ratioP1;P1;durP2;ratioP2;P2;SDS_P1;SDS_P2;PMS_P1;PMS_P2;Temp;Humidity;BMP_temperature;BMP_pressure;BME280_temperature;BME280_humidity;BME280_pressure;Samples;Min_cycle;Max_cycle;Signal;HPM_P1;HPM_P2
2022/04/05 00:01:51;;;;;;;6.32;5.72;;;;;;;;;;5074516;28;20384;-79
2022/04/05 00:04:17;;;;;;;5.93;5.32;;;;;;;;;;5074407;28;20036;-78
2022/04/05 00:06:43;;;;;;;7.03;6.25;;;;;;;;;;5074343;28;20032;-79
2022/04/05 00:09:09;;;;;;;6.22;5.63;;;;;;;;;;5074174;28;20028;-78
2022/04/05 00:11:36;;;;;;;6.05;5.40;;;;;;;;;;5074377;28;20024;-77
2022/04/05 00:14:02;;;;;;;7.22;5.68;;;;;;;;;;5074202;28;20053;-77
2022/04/05 00:16:28;;;;;;;7.13;6.20;;;;;;;;;;5074225;28;20020;-79
2022/04/05 00:18:54;;;;;;;7.68;5.82;;;;;;;;;;5074282;28;20099;-79
2022/04/05 00:21:21;;;;;;;5.60;4.72;;;;;;;;;;5074082;28;20020;-78
2022/04/05 00:23:47;;;;;;;7.40;5.75;;;;;;;;;;5074091;28;20031;-78
2022/04/05 00:26:13;;;;;;;6.50;5.68;;;;;;;;;;5073802;28;20036;-77
2022/04/05 00:28:39;;;;;;;12.07;7.68;;;;;;;;;;5074072;28;20082;-77
2022/04/05 00:31:05;;;;;;;9.38;6.57;;;;;;;;;;5073716;28;20089;-77
2022/04/05 00:33:32;;;;;;;7.65;6.03;;;;;;;;;;5073941;28;20028;-78
2022/04/05 00:35:58;;;;;;;10.55;8.20;;;;;;;;;;5074032;28;20103;-77
2022/04/05 00:38:24;;;;;;;8.68;7.13;;;;;;;;;;5073517;28;20028;-79
2022/04/05 00:40:50;;;;;;;7.85;6.57;;;;;;;;;;5073820;28;20025;-77
2022/04/05 00:43:16;;;;;;;12.05;8.85;;;;;;;;;;5073470;28;20102;-79
2022/04/05 00:45:42;;;;;;;20.02;12.35;;;;;;;;;;5073674;28;20032;-77
2022/04/05 00:48:11;;;;;;;20.33;12.32;;;;;;;;;;5072278;28;20020;-78
2022/04/05 00:50:38;;;;;;;12.15;9.18;;;;;;;;;;5073578;28;20033;-77
2022/04/05 00:53:06;;;;;;;10.50;8.93;;;;;;;;;;5073407;28;20024;-78
2022/04/05 00:55:33;;;;;;;10.93;8.85;;;;;;;;;;5073570;28;20035;-80
2022/04/05 00:58:03;;;;;;;9.02;8.07;;;;;;;;;;5073038;28;20060;-79
2022/04/05 01:00:29;;;;;;;8.57;7.65;;;;;;;;;;5073210;28;20028;-79
2022/04/05 01:02:56;;;;;;;9.30;8.40;;;;;;;;;;5073386;28;20025;-77
2022/04/05 01:05:23;;;;;;;9.52;8.52;;;;;;;;;;5072765;28;20567;-79
2022/04/05 01:07:52;;;;;;;8.88;7.97;;;;;;;;;;5073302;28;20052;-79
2022/04/05 01:10:22;;;;;;;11.23;8.07;;;;;;;;;;5073020;28;20157;-78
2022/04/05 01:12:49;;;;;;;9.57;7.15;;;;;;;;;;5073253;28;20027;-79
2022/04/05 01:15:15;;;;;;;8.55;7.03;;;;;;;;;;5072940;28;20017;-79
2022/04/05 01:17:41;;;;;;;7.90;7.07;;;;;;;;;;5071746;28;20073;-79
2022/04/05 01:20:07;;;;;;;8.27;7.28;;;;;;;;;;5072774;28;20472;-79
2022/04/05 01:22:34;;;;;;;8.32;6.78;;;;;;;;;;5073023;28;20042;-80
2022/04/05 01:25:00;;;;;;;8.98;7.32;;;;;;;;;;5072846;28;20085;-78
2022/04/05 01:27:27;;;;;;;9.00;7.95;;;;;;;;;;5072601;28;20032;-79
2022/04/05 01:29:56;;;;;;;8.93;7.60;;;;;;;;;;5072911;28;20020;-79
2022/04/05 01:32:22;;;;;;;10.93;9.23;;;;;;;;;;5072506;28;20025;-77
2022/04/05 01:34:48;;;;;;;8.65;7.45;;;;;;;;;;5072847;28;20028;-78
2022/04/05 01:37:14;;;;;;;8.80;7.43;;;;;;;;;;5072553;28;20086;-78
2022/04/05 01:39:41;;;;;;;9.30;7.93;;;;;;;;;;5073011;28;20365;-79
2022/04/05 01:42:09;;;;;;;9.07;7.75;;;;;;;;;;5071338;28;20090;-78
2022/04/05 01:44:37;;;;;;;9.35;7.18;;;;;;;;;;5071465;28;20461;-80
2022/04/05 01:47:10;;;;;;;11.48;8.00;;;;;;;;;;5072436;28;20466;-78
2022/04/05 01:49:37;;;;;;;9.73;8.45;;;;;;;;;;5072647;28;20032;-76
2022/04/05 01:52:04;;;;;;;9.95;8.07;;;;;;;;;;5072477;28;20020;-76
2022/04/05 01:54:30;;;;;;;10.18;7.63;;;;;;;;;;5072441;28;20074;-77
2022/04/05 01:56:56;;;;;;;9.23;8.05;;;;;;;;;;5072469;28;20029;-75
2022/04/05 01:59:26;;;;;;;11.05;8.30;;;;;;;;;;5072079;28;20399;-77
2022/04/05 02:01:52;;;;;;;11.10;9.40;;;;;;;;;;5072482;28;20031;-78
2022/04/05 02:04:19;;;;;;;10.57;9.23;;;;;;;;;;5071109;28;20074;-76
2022/04/05 02:06:45;;;;;;;10.07;9.07;;;;;;;;;;5072288;28;20036;-76
2022/04/05 02:09:14;;;;;;;10.10;8.50;;;;;;;;;;5071736;28;20111;-77
2022/04/05 02:11:41;;;;;;;11.70;9.20;;;;;;;;;;5072439;28;20033;-76
2022/04/05 02:14:07;;;;;;;9.18;8.05;;;;;;;;;;5072150;28;20472;-76
2022/04/05 02:16:33;;;;;;;10.18;8.50;;;;;;;;;;5072279;28;20085;-76
2022/04/05 02:18:59;;;;;;;9.75;8.48;;;;;;;;;;5072375;28;20029;-76
2022/04/05 02:21:25;;;;;;;9.65;8.52;;;;;;;;;;5072184;28;20016;-76
2022/04/05 02:23:51;;;;;;;10.55;9.50;;;;;;;;;;5072333;28;20418;-75
2022/04/05 02:26:18;;;;;;;11.07;9.10;;;;;;;;;;5070707;28;20032;-76
2022/04/05 02:28:44;;;;;;;10.73;9.57;;;;;;;;;;5072162;28;20493;-77
2022/04/05 02:31:10;;;;;;;9.15;8.25;;;;;;;;;;5072146;28;20526;-79
2022/04/05 02:33:36;;;;;;;10.60;8.07;;;;;;;;;;5072135;28;20020;-80
2022/04/05 02:36:03;;;;;;;9.07;7.95;;;;;;;;;;5072235;28;20104;-77
2022/04/05 02:38:29;;;;;;;9.32;7.90;;;;;;;;;;5072040;28;20032;-79
2022/04/05 02:40:57;;;;;;;12.20;9.75;;;;;;;;;;5072178;28;20433;-80
2022/04/05 02:43:24;;;;;;;11.10;9.60;;;;;;;;;;5071902;28;20029;-79
2022/04/05 02:45:50;;;;;;;12.27;8.75;;;;;;;;;;5070724;28;20036;-79
2022/04/05 02:48:16;;;;;;;8.85;7.78;;;;;;;;;;5071871;28;20078;-78
2022/04/05 02:50:43;;;;;;;9.18;8.27;;;;;;;;;;5072099;28;20074;-79
2022/04/05 02:53:11;;;;;;;10.80;8.13;;;;;;;;;;5072021;28;20031;-78
2022/04/05 02:55:37;;;;;;;8.95;8.05;;;;;;;;;;5071890;28;20024;-79
2022/04/05 02:58:06;;;;;;;10.07;7.95;;;;;;;;;;5071619;28;20048;-79
2022/04/05 03:00:32;;;;;;;8.82;7.75;;;;;;;;;;5071620;28;20033;-80
2022/04/05 03:02:59;;;;;;;9.57;8.38;;;;;;;;;;5071804;28;20025;-78
2022/04/05 03:05:25;;;;;;;9.35;7.72;;;;;;;;;;5071570;28;20032;-77
2022/04/05 03:07:51;;;;;;;10.45;8.48;;;;;;;;;;5072032;28;20905;-79
2022/04/05 03:10:20;;;;;;;10.68;9.57;;;;;;;;;;5071649;28;20031;-79
2022/04/05 03:12:46;;;;;;;10.15;9.02;;;;;;;;;;5071753;28;20032;-79
2022/04/05 03:15:13;;;;;;;10.13;9.05;;;;;;;;;;5071788;28;20482;-79
2022/04/05 03:17:43;;;;;;;9.75;8.45;;;;;;;;;;5071763;28;20032;-79
2022/04/05 03:20:13;;;;;;;9.45;7.38;;;;;;;;;;5071739;28;20438;-80
2022/04/05 03:22:42;;;;;;;9.38;7.90;;;;;;;;;;5075250;28;20024;-80
2022/04/05 03:25:10;;;;;;;11.10;8.63;;;;;;;;;;5075170;28;20032;-80
2022/04/05 03:27:42;;;;;;;11.95;8.90;;;;;;;;;;5075156;28;20494;-80
2022/04/05 03:30:13;;;;;;;11.13;9.27;;;;;;;;;;5075040;28;20399;-78
2022/04/05 03:32:39;;;;;;;10.00;8.38;;;;;;;;;;5075109;28;20028;-78
2022/04/05 03:35:06;;;;;;;9.68;7.93;;;;;;;;;;5075000;28;20020;-79
2022/04/05 03:37:32;;;;;;;10.65;9.32;;;;;;;;;;5074955;28;20033;-80
2022/04/05 03:39:59;;;;;;;10.65;8.60;;;;;;;;;;5073703;28;20444;-78
2022/04/05 03:42:25;;;;;;;10.80;8.43;;;;;;;;;;5074803;28;20483;-79
2022/04/05 03:44:51;;;;;;;10.35;8.00;;;;;;;;;;5074892;28;20052;-78
2022/04/05 03:47:18;;;;;;;9.13;8.23;;;;;;;;;;5074725;28;20028;-79
2022/04/05 03:49:44;;;;;;;11.77;9.30;;;;;;;;;;5074550;28;20032;-78
2022/04/05 03:52:10;;;;;;;10.98;9.00;;;;;;;;;;5074463;28;20460;-80
2022/04/05 03:54:36;;;;;;;17.90;15.25;;;;;;;;;;5074660;28;20025;-81
2022/04/05 03:57:03;;;;;;;16.88;15.05;;;;;;;;;;5074604;28;20044;-80
2022/04/05 03:59:29;;;;;;;13.48;11.60;;;;;;;;;;5074375;28;20393;-79
2022/04/05 04:01:58;;;;;;;11.30;10.20;;;;;;;;;;5074378;28;20475;-78
2022/04/05 04:04:24;;;;;;;10.70;9.60;;;;;;;;;;5073916;28;20435;-78
2022/04/05 04:06:50;;;;;;;9.73;8.50;;;;;;;;;;5073951;28;20068;-79
2022/04/05 04:09:18;;;;;;;8.88;7.97;;;;;;;;;;5074291;28;20031;-80
2022/04/05 04:11:48;;;;;;;9.48;8.43;;;;;;;;;;5073073;28;20097;-80
2022/04/05 04:14:14;;;;;;;9.55;8.55;;;;;;;;;;5074112;28;20056;-79
2022/04/05 04:16:40;;;;;;;9.57;8.63;;;;;;;;;;5074284;28;20043;-81
2022/04/05 04:19:06;;;;;;;10.73;9.10;;;;;;;;;;5073954;28;20029;-78
2022/04/05 04:21:32;;;;;;;9.32;8.30;;;;;;;;;;5074057;28;20028;-78
2022/04/05 04:23:58;;;;;;;8.50;7.20;;;;;;;;;;5073990;28;20058;-78
2022/04/05 04:26:42;;;;;;;9.02;8.13;;;;;;;;;;5073392;28;20028;-79
2022/04/05 04:29:08;;;;;;;11.20;8.75;;;;;;;;;;5073695;28;20032;-80
2022/04/05 04:31:34;;;;;;;8.90;7.70;;;;;;;;;;5073448;28;20076;-80
2022/04/05 04:34:01;;;;;;;10.02;8.52;;;;;;;;;;5073221;28;20025;-78
2022/04/05 04:36:28;;;;;;;13.32;11.77;;;;;;;;;;5073736;28;20028;-78
2022/04/05 04:38:54;;;;;;;22.92;17.73;;;;;;;;;;5073916;28;20032;-78
2022/04/05 04:41:23;;;;;;;13.73;10.73;;;;;;;;;;5072975;28;20032;-78
2022/04/05 04:43:49;;;;;;;13.77;12.30;;;;;;;;;;5073863;28;20028;-79
2022/04/05 04:46:19;;;;;;;11.43;9.65;;;;;;;;;;5073272;28;20039;-78
2022/04/05 04:48:48;;;;;;;13.70;11.75;;;;;;;;;;5073375;28;20102;-78
2022/04/05 04:51:14;;;;;;;14.55;13.07;;;;;;;;;;5073479;28;20029;-79
2022/04/05 04:53:40;;;;;;;16.15;13.43;;;;;;;;;;5073450;28;20444;-80
2022/04/05 04:56:06;;;;;;;17.17;13.00;;;;;;;;;;5073341;28;20021;-80
2022/04/05 04:58:33;;;;;;;11.48;10.27;;;;;;;;;;5073001;28;20132;-79
2022/04/05 05:00:59;;;;;;;12.20;8.82;;;;;;;;;;5073358;28;20025;-78
2022/04/05 05:03:25;;;;;;;12.18;10.68;;;;;;;;;;5073320;28;20388;-78
2022/04/05 05:05:51;;;;;;;12.98;10.43;;;;;;;;;;5073225;28;20116;-78
2022/04/05 05:08:17;;;;;;;11.80;9.80;;;;;;;;;;5072951;28;20027;-80
2022/04/05 05:10:43;;;;;;;15.50;13.25;;;;;;;;;;5072913;28;20534;-80
2022/04/05 05:13:10;;;;;;;25.25;19.88;;;;;;;;;;5072730;28;20025;-79
2022/04/05 05:15:36;;;;;;;26.08;19.80;;;;;;;;;;5073134;28;20884;-77
2022/04/05 05:18:02;;;;;;;25.83;21.80;;;;;;;;;;5073038;28;20416;-78
2022/04/05 05:20:28;;;;;;;18.42;13.75;;;;;;;;;;5072288;28;20107;-80
2022/04/05 05:22:54;;;;;;;15.88;13.05;;;;;;;;;;5071572;28;20074;-77
2022/04/05 05:25:20;;;;;;;16.35;12.82;;;;;;;;;;5060302;28;20025;-79
2022/04/05 05:27:46;;;;;;;16.85;12.63;;;;;;;;;;5069643;28;20032;-81
2022/04/05 05:30:12;;;;;;;12.63;11.23;;;;;;;;;;5072179;28;20502;-75
2022/04/05 05:32:57;;;;;;;10.35;8.52;;;;;;;;;;5074732;28;20035;-79
2022/04/05 05:35:23;;;;;;;10.75;9.18;;;;;;;;;;5071094;28;20107;-76
2022/04/05 05:37:50;;;;;;;9.98;8.98;;;;;;;;;;5069915;28;20109;-78
2022/04/05 05:40:17;;;;;;;10.93;9.10;;;;;;;;;;5071214;28;20028;-81
2022/04/05 05:42:59;;;;;;;11.68;9.32;;;;;;;;;;5070814;28;20035;-78
2022/04/05 05:45:27;;;;;;;11.77;9.25;;;;;;;;;;5070432;28;20159;-80
2022/04/05 05:47:53;;;;;;;12.40;9.70;;;;;;;;;;5070966;28;20036;-78
2022/04/05 05:50:19;;;;;;;13.52;11.02;;;;;;;;;;5069590;28;20361;-79
2022/04/05 05:52:46;;;;;;;12.02;10.73;;;;;;;;;;5070700;28;20498;-77
2022/04/05 05:58:06;;;;;;;11.48;9.75;;;;;;;;;;5067186;28;20055;-79
2022/04/05 06:00:32;;;;;;;20.00;17.55;;;;;;;;;;5070837;28;20029;-79
2022/04/05 06:03:01;;;;;;;18.77;14.73;;;;;;;;;;5070657;28;20056;-79
2022/04/05 06:05:28;;;;;;;12.73;10.05;;;;;;;;;;5069885;28;20040;-77
2022/04/05 06:07:54;;;;;;;9.93;8.07;;;;;;;;;;5070740;28;20052;-79
2022/04/05 06:10:21;;;;;;;9.93;8.27;;;;;;;;;;5070431;28;20032;-79
2022/04/05 06:12:48;;;;;;;12.60;9.45;;;;;;;;;;5069856;28;20119;-79
2022/04/05 06:15:15;;;;;;;10.50;8.35;;;;;;;;;;5068427;28;20020;-77
2022/04/05 06:17:45;;;;;;;11.32;8.43;;;;;;;;;;5070339;28;20108;-80
2022/04/05 06:20:14;;;;;;;11.02;8.77;;;;;;;;;;5070298;28;20112;-77
2022/04/05 06:23:01;;;;;;;10.27;8.88;;;;;;;;;;5069435;28;20029;-76
2022/04/05 06:25:28;;;;;;;14.05;10.18;;;;;;;;;;5069704;28;20064;-76
2022/04/05 06:27:57;;;;;;;12.85;11.48;;;;;;;;;;5070269;28;20134;-76
2022/04/05 06:30:24;;;;;;;13.27;11.80;;;;;;;;;;5069822;28;20130;-79
2022/04/05 06:32:52;;;;;;;13.05;11.55;;;;;;;;;;5070308;28;20028;-77
2022/04/05 06:35:18;;;;;;;14.00;10.82;;;;;;;;;;5070405;28;20078;-76
2022/04/05 06:37:45;;;;;;;11.68;10.48;;;;;;;;;;5070155;28;20479;-77
2022/04/05 06:40:12;;;;;;;9.68;8.25;;;;;;;;;;5070399;28;20039;-77
2022/04/05 06:45:24;;;;;;;11.80;10.60;;;;;;;;;;5050451;28;20091;-77
2022/04/05 06:47:50;;;;;;;14.48;12.32;;;;;;;;;;5050228;28;20118;-76
2022/04/05 06:50:20;;;;;;;13.38;11.52;;;;;;;;;;5050317;28;20091;-77
2022/04/05 06:52:47;;;;;;;26.35;20.10;;;;;;;;;;5050950;28;20383;-78
2022/04/05 06:55:13;;;;;;;16.70;13.60;;;;;;;;;;5071284;28;20048;-77
2022/04/05 06:57:40;;;;;;;15.07;12.65;;;;;;;;;;5073812;28;20475;-79
2022/04/05 07:00:08;;;;;;;21.00;15.63;;;;;;;;;;5074432;28;20031;-79
2022/04/05 07:02:34;;;;;;;16.67;12.70;;;;;;;;;;5074310;28;20544;-78
2022/04/05 07:05:01;;;;;;;16.23;13.30;;;;;;;;;;5073573;28;20029;-78
2022/04/05 07:07:27;;;;;;;16.23;12.93;;;;;;;;;;5074058;28;20024;-78
2022/04/05 07:09:53;;;;;;;19.02;14.77;;;;;;;;;;5073711;28;20372;-77
2022/04/05 07:12:19;;;;;;;15.38;13.05;;;;;;;;;;5073689;28;20024;-78
2022/04/05 07:14:46;;;;;;;15.18;12.80;;;;;;;;;;5073697;28;20024;-76
2022/04/05 07:17:12;;;;;;;16.70;13.77;;;;;;;;;;5073659;28;20032;-77
2022/04/05 07:19:38;;;;;;;11.90;10.02;;;;;;;;;;5074301;28;20409;-79
2022/04/05 07:22:04;;;;;;;10.40;9.15;;;;;;;;;;5073901;28;20090;-77
2022/04/05 07:24:30;;;;;;;8.93;7.47;;;;;;;;;;5071352;28;20149;-80
2022/04/05 07:26:56;;;;;;;10.05;8.48;;;;;;;;;;5072674;28;20056;-77
2022/04/05 07:29:25;;;;;;;13.90;9.02;;;;;;;;;;5073438;28;20046;-79
2022/04/05 07:31:51;;;;;;;13.18;8.77;;;;;;;;;;5073544;28;20035;-79
2022/04/05 07:34:17;;;;;;;10.77;6.30;;;;;;;;;;5073529;28;20032;-79
2022/04/05 07:36:43;;;;;;;14.10;7.82;;;;;;;;;;5073603;28;20032;-79
2022/04/05 07:39:09;;;;;;;11.10;7.35;;;;;;;;;;5071869;28;20036;-80
2022/04/05 07:41:38;;;;;;;21.13;10.00;;;;;;;;;;5073403;28;20035;-80
2022/04/05 07:44:04;;;;;;;15.88;9.27;;;;;;;;;;5072857;28;20543;-78
2022/04/05 07:46:30;;;;;;;12.63;7.95;;;;;;;;;;5073461;28;20079;-80
2022/04/05 07:48:56;;;;;;;15.73;9.48;;;;;;;;;;5072910;28;20020;-80
2022/04/05 07:51:25;;;;;;;10.65;7.28;;;;;;;;;;5073354;28;20068;-79
2022/04/05 07:53:51;;;;;;;7.13;5.35;;;;;;;;;;5071552;28;20064;-79
2022/04/05 07:56:17;;;;;;;11.63;7.50;;;;;;;;;;5072635;28;20768;-78
2022/04/05 07:58:43;;;;;;;13.35;7.70;;;;;;;;;;5071188;28;20132;-79
2022/04/05 08:01:10;;;;;;;9.85;7.78;;;;;;;;;;5073022;28;20090;-78
2022/04/05 08:04:00;;;;;;;7.68;6.13;;;;;;;;;;5072479;28;20044;-79
2022/04/05 08:06:31;;;;;;;11.13;7.03;;;;;;;;;;5071691;28;20032;-79
2022/04/05 08:08:57;;;;;;;9.38;6.25;;;;;;;;;;5071740;28;20082;-78
2022/04/05 08:11:23;;;;;;;10.00;6.20;;;;;;;;;;5071517;28;20413;-79
2022/04/05 08:13:50;;;;;;;12.05;6.75;;;;;;;;;;5071872;28;20111;-80
2022/04/05 08:16:18;;;;;;;12.02;7.65;;;;;;;;;;5072452;28;20028;-80
2022/04/05 08:18:44;;;;;;;44.83;18.85;;;;;;;;;;5072188;28;20873;-78
2022/04/05 08:21:10;;;;;;;38.75;17.17;;;;;;;;;;5072401;28;20081;-79
2022/04/05 08:23:38;;;;;;;37.53;16.77;;;;;;;;;;5070176;28;20028;-78
2022/04/05 08:26:04;;;;;;;30.77;12.57;;;;;;;;;;5054683;28;20068;-80
2022/04/05 08:28:31;;;;;;;11.32;7.38;;;;;;;;;;5051274;28;20474;-80
2022/04/05 08:30:57;;;;;;;8.70;6.82;;;;;;;;;;5060025;28;20052;-81
2022/04/05 08:33:23;;;;;;;9.63;6.57;;;;;;;;;;5053054;28;20500;-81
2022/04/05 08:35:49;;;;;;;10.40;7.53;;;;;;;;;;5069865;28;20490;-79
2022/04/05 08:38:15;;;;;;;8.43;6.45;;;;;;;;;;5072039;28;20368;-79
2022/04/05 08:40:42;;;;;;;7.45;5.13;;;;;;;;;;5070947;28;20025;-78
2022/04/05 08:43:14;;;;;;;8.25;6.53;;;;;;;;;;5052058;28;20089;-79
2022/04/05 08:45:42;;;;;;;7.18;5.40;;;;;;;;;;5066301;28;20040;-81
2022/04/05 08:48:09;;;;;;;9.07;5.10;;;;;;;;;;5070470;28;20502;-82
2022/04/05 08:50:36;;;;;;;6.72;4.53;;;;;;;;;;5070945;28;20573;-73
2022/04/05 08:53:11;;;;;;;7.65;4.80;;;;;;;;;;5071756;28;20031;-83
2022/04/05 08:55:37;;;;;;;6.70;4.63;;;;;;;;;;5071881;28;20032;-80
2022/04/05 08:58:04;;;;;;;6.25;4.78;;;;;;;;;;5070635;28;20056;-81
2022/04/05 09:00:30;;;;;;;6.10;3.95;;;;;;;;;;5070129;28;20036;-81
2022/04/05 09:03:00;;;;;;;10.82;6.45;;;;;;;;;;5071225;28;20029;-80
2022/04/05 09:05:42;;;;;;;8.77;5.10;;;;;;;;;;5070381;28;20614;-78
2022/04/05 09:08:13;;;;;;;5.50;4.47;;;;;;;;;;5071625;28;20025;-79
2022/04/05 09:10:46;;;;;;;5.70;3.95;;;;;;;;;;5071618;28;20042;-86
2022/04/05 09:13:13;;;;;;;6.15;4.75;;;;;;;;;;5069406;28;20040;-81
2022/04/05 09:15:42;;;;;;;9.27;6.95;;;;;;;;;;5071326;28;20028;-80
2022/04/05 09:18:09;;;;;;;15.85;8.50;;;;;;;;;;5071377;28;20103;-79
2022/04/05 09:20:45;;;;;;;16.10;8.88;;;;;;;;;;5070800;28;20037;-79
2022/04/05 09:23:31;;;;;;;12.30;8.00;;;;;;;;;;5070527;28;20082;-81
2022/04/05 09:26:03;;;;;;;8.73;5.30;;;;;;;;;;5070906;28;20031;-80
2022/04/05 09:28:33;;;;;;;9.60;6.18;;;;;;;;;;5071748;28;20032;-79
2022/04/05 09:31:01;;;;;;;7.05;4.93;;;;;;;;;;5071097;28;20021;-80
2022/04/05 09:33:29;;;;;;;4.82;4.40;;;;;;;;;;5079798;28;20072;-78
2022/04/05 09:36:04;;;;;;;4.53;3.97;;;;;;;;;;5091579;28;20065;-79
2022/04/05 09:38:30;;;;;;;13.32;4.80;;;;;;;;;;5091236;28;20024;-77
2022/04/05 09:41:09;;;;;;;7.18;4.63;;;;;;;;;;5083681;28;20063;-78
2022/04/05 09:43:35;;;;;;;11.13;5.68;;;;;;;;;;5050501;28;20044;-79
2022/04/05 09:46:02;;;;;;;7.22;4.07;;;;;;;;;;5050861;28;20033;-81
2022/04/05 09:48:29;;;;;;;6.13;3.78;;;;;;;;;;5051124;28;20025;-81
2022/04/05 09:51:17;;;;;;;7.97;6.63;;;;;;;;;;5062421;28;20061;-80
2022/04/05 09:53:45;;;;;;;6.45;4.78;;;;;;;;;;5070415;28;20518;-79
2022/04/05 09:56:11;;;;;;;5.25;4.00;;;;;;;;;;5069072;28;20136;-79
2022/04/05 09:58:57;;;;;;;5.72;4.82;;;;;;;;;;5068557;28;20072;-79
2022/04/05 10:01:23;;;;;;;;;;;;;;;;;;5070963;28;20024;-80
2022/04/05 10:04:08;;;;;;;14.52;7.22;;;;;;;;;;5069918;28;19913;-80
2022/04/05 10:06:38;;;;;;;29.80;13.88;;;;;;;;;;5070488;28;20032;-78
2022/04/05 10:09:05;;;;;;;24.20;10.65;;;;;;;;;;5069295;28;20123;-79
2022/04/05 10:11:32;;;;;;;13.63;7.57;;;;;;;;;;5070301;28;20437;-79
2022/04/05 10:13:59;;;;;;;26.58;12.15;;;;;;;;;;5070893;28;20029;-78
2022/04/05 10:16:26;;;;;;;23.00;11.43;;;;;;;;;;5070844;28;20031;-79
2022/04/05 10:18:57;;;;;;;28.02;12.38;;;;;;;;;;5070081;28;20040;-80
2022/04/05 10:21:25;;;;;;;23.60;11.07;;;;;;;;;;5069629;28;20163;-80
2022/04/05 10:23:53;;;;;;;7.60;5.70;;;;;;;;;;5070617;28;20431;-81
2022/04/05 10:26:24;;;;;;;13.48;7.20;;;;;;;;;;5070318;28;20035;-79
2022/04/05 10:28:51;;;;;;;16.77;9.02;;;;;;;;;;5070226;28;20523;-79
2022/04/05 10:31:20;;;;;;;17.63;8.65;;;;;;;;;;5073776;28;20032;-78
2022/04/05 10:34:10;;;;;;;21.88;10.93;;;;;;;;;;5073956;28;20441;-79
2022/04/05 10:36:36;;;;;;;22.45;10.55;;;;;;;;;;5074400;28;20430;-78
2022/04/05 10:39:22;;;;;;;17.02;9.23;;;;;;;;;;5073816;28;20033;-78
2022/04/05 10:42:07;;;;;;;14.82;7.43;;;;;;;;;;5074343;28;20669;-78
2022/04/05 10:44:33;;;;;;;;;;;;;;;;;;5074139;28;20039;-80
2022/04/05 10:47:04;;;;;;;10.18;7.70;;;;;;;;;;5074447;28;20356;-79
2022/04/05 10:49:49;;;;;;;19.30;11.75;;;;;;;;;;5053974;28;20140;-77
2022/04/05 10:52:20;;;;;;;14.57;6.93;;;;;;;;;;5071436;28;20428;-79
2022/04/05 10:54:50;;;;;;;16.65;7.20;;;;;;;;;;5074707;28;20154;-78
2022/04/05 10:57:16;;;;;;;14.73;5.82;;;;;;;;;;5074533;28;20024;-80
2022/04/05 10:59:47;;;;;;;16.73;7.88;;;;;;;;;;5074586;28;20049;-79
2022/04/05 11:02:28;;;;;;;23.92;9.77;;;;;;;;;;5071910;28;20036;-81
2022/04/05 11:05:02;;;;;;;9.38;5.32;;;;;;;;;;5073532;28;20035;-80
2022/04/05 11:07:29;;;;;;;17.73;7.45;;;;;;;;;;5073562;28;20494;-80
2022/04/05 11:09:56;;;;;;;8.90;3.88;;;;;;;;;;5073186;28;20047;-76
2022/04/05 11:12:26;;;;;;;13.55;6.07;;;;;;;;;;5073726;28;20137;-74
2022/04/05 11:14:59;;;;;;;10.75;5.53;;;;;;;;;;5073424;28;20025;-79
2022/04/05 11:17:27;;;;;;;6.68;3.92;;;;;;;;;;5073211;28;20028;-79
2022/04/05 11:19:55;;;;;;;9.45;4.28;;;;;;;;;;5073429;28;20123;-80
2022/04/05 11:22:21;;;;;;;19.95;8.60;;;;;;;;;;5073852;28;20088;-80
2022/04/05 11:24:56;;;;;;;11.77;5.70;;;;;;;;;;5073619;28;20032;-78
2022/04/05 11:27:28;;;;;;;9.13;5.05;;;;;;;;;;5073060;28;20452;-81
2022/04/05 11:30:12;;;;;;;11.93;6.38;;;;;;;;;;5054619;28;20028;-78
2022/04/05 11:32:39;;;;;;;8.30;4.28;;;;;;;;;;5073674;28;20040;-78
2022/04/05 11:35:05;;;;;;;15.00;6.40;;;;;;;;;;5070829;28;20046;-76
2022/04/05 11:37:33;;;;;;;10.13;5.60;;;;;;;;;;5071549;28;20103;-83
2022/04/05 11:40:01;;;;;;;25.85;10.07;;;;;;;;;;5072637;28;20029;-78
2022/04/05 11:42:27;;;;;;;16.27;7.97;;;;;;;;;;5070505;28;20035;-78
2022/04/05 11:44:54;;;;;;;14.77;6.40;;;;;;;;;;5069563;28;20025;-78
2022/04/05 11:47:20;;;;;;;11.45;6.43;;;;;;;;;;5071909;28;20127;-76
2022/04/05 11:49:46;;;;;;;9.48;6.05;;;;;;;;;;5069857;28;20028;-76
2022/04/05 11:52:13;;;;;;;39.28;16.48;;;;;;;;;;5069419;28;20040;-76
2022/04/05 11:57:25;;;;;;;23.50;10.75;;;;;;;;;;5071916;28;20043;-79
2022/04/05 12:00:04;;;;;;;18.92;10.00;;;;;;;;;;5069246;28;20502;-77
2022/04/05 12:02:30;;;;;;;17.85;8.32;;;;;;;;;;5071952;28;20096;-80
2022/04/05 12:04:56;;;;;;;19.17;7.70;;;;;;;;;;5071820;28;20410;-78
2022/04/05 12:07:22;;;;;;;15.10;7.57;;;;;;;;;;5072347;28;20044;-80
2022/04/05 12:09:48;;;;;;;12.55;7.25;;;;;;;;;;5071443;28;20036;-82
2022/04/05 12:12:14;;;;;;;15.55;9.45;;;;;;;;;;5072309;28;20032;-78
2022/04/05 12:14:40;;;;;;;13.98;8.25;;;;;;;;;;5072607;28;20036;-80
2022/04/05 12:17:07;;;;;;;12.82;6.90;;;;;;;;;;5072023;28;20479;-78
2022/04/05 12:19:51;;;;;;;13.50;6.93;;;;;;;;;;5073616;28;20039;-79
2022/04/05 12:22:18;;;;;;;;;;;;;;;;;;5072985;28;20531;-79
2022/04/05 12:27:31;;;;;;;10.43;6.93;;;;;;;;;;5072938;28;20572;-77
2022/04/05 12:30:04;;;;;;;14.65;6.00;;;;;;;;;;5073154;28;20403;-77
2022/04/05 12:32:37;;;;;;;11.45;5.78;;;;;;;;;;5073058;28;20036;-78
2022/04/05 12:35:04;;;;;;;8.07;5.38;;;;;;;;;;5070510;28;20056;-78
2022/04/05 12:37:30;;;;;;;12.73;8.38;;;;;;;;;;5072220;28;20103;-77
2022/04/05 12:39:56;;;;;;;27.00;18.75;;;;;;;;;;5073151;28;20107;-76
2022/04/05 12:42:23;;;;;;;11.00;6.43;;;;;;;;;;5073232;28;20075;-78
2022/04/05 12:44:57;;;;;;;7.47;4.70;;;;;;;;;;5073136;28;20028;-80
2022/04/05 12:47:25;;;;;;;8.13;4.80;;;;;;;;;;5071911;28;20071;-79
2022/04/05 12:50:09;;;;;;;8.77;5.03;;;;;;;;;;5072757;28;20063;-79
2022/04/05 12:52:35;;;;;;;8.18;5.88;;;;;;;;;;5052660;28;20025;-81
2022/04/05 12:55:05;;;;;;;11.57;5.97;;;;;;;;;;5053474;28;20027;-79
2022/04/05 12:57:36;;;;;;;10.60;6.53;;;;;;;;;;5052894;28;20033;-81
2022/04/05 13:00:08;;;;;;;12.23;6.28;;;;;;;;;;5062738;28;20387;-77
2022/04/05 13:02:39;;;;;;;9.57;5.38;;;;;;;;;;5072333;28;20024;-78
2022/04/05 13:07:56;;;;;;;13.20;6.60;;;;;;;;;;5072548;28;20047;-79
2022/04/05 13:10:41;;;;;;;16.58;7.38;;;;;;;;;;5071610;28;20029;-79
2022/04/05 13:13:16;;;;;;;13.32;7.10;;;;;;;;;;5073091;28;20024;-79
2022/04/05 13:15:43;;;;;;;9.15;5.00;;;;;;;;;;5071193;28;20032;-80
2022/04/05 13:18:11;;;;;;;10.15;5.60;;;;;;;;;;5072841;28;20075;-79
2022/04/05 13:20:37;;;;;;;16.85;6.40;;;;;;;;;;5072670;28;20036;-77
2022/04/05 13:23:04;;;;;;;9.80;5.57;;;;;;;;;;5072293;28;20039;-77
2022/04/05 13:25:37;;;;;;;12.65;6.60;;;;;;;;;;5072182;28;20078;-82
2022/04/05 13:28:05;;;;;;;10.27;5.70;;;;;;;;;;5072410;28;20033;-80
2022/04/05 13:30:31;;;;;;;8.90;5.68;;;;;;;;;;5071598;28;20029;-82
2022/04/05 13:33:16;;;;;;;17.92;6.75;;;;;;;;;;5072515;28;20032;-81
2022/04/05 13:35:42;;;;;;;8.88;5.63;;;;;;;;;;5072444;28;20028;-77
2022/04/05 13:38:08;;;;;;;12.27;6.30;;;;;;;;;;5072317;28;20047;-78
2022/04/05 13:40:36;;;;;;;14.00;6.70;;;;;;;;;;5072159;28;20115;-81
2022/04/05 13:43:02;;;;;;;10.77;6.10;;;;;;;;;;5072135;28;20107;-79
2022/04/05 13:45:29;;;;;;;13.43;6.60;;;;;;;;;;5071973;28;20050;-79
2022/04/05 13:47:55;;;;;;;10.43;6.80;;;;;;;;;;5072225;28;20112;-80
2022/04/05 13:50:22;;;;;;;17.48;11.80;;;;;;;;;;5072774;28;20028;-80
2022/04/05 13:52:48;;;;;;;15.57;8.88;;;;;;;;;;5070809;28;20087;-80
2022/04/05 13:55:14;;;;;;;10.77;6.80;;;;;;;;;;5061791;28;20017;-78
2022/04/05 13:57:40;;;;;;;11.80;6.72;;;;;;;;;;5050456;28;20029;-77
2022/04/05 14:00:07;;;;;;;9.95;6.13;;;;;;;;;;5050383;28;20050;-77
2022/04/05 14:02:33;;;;;;;11.65;7.50;;;;;;;;;;5069286;28;20056;-80
2022/04/05 14:04:59;;;;;;;14.80;9.77;;;;;;;;;;5066240;28;20077;-78
2022/04/05 14:07:25;;;;;;;13.73;7.15;;;;;;;;;;5069724;28;20020;-80
2022/04/05 14:09:52;;;;;;;11.15;6.80;;;;;;;;;;5069189;28;20082;-81
2022/04/05 14:12:18;;;;;;;24.38;10.85;;;;;;;;;;5069595;28;20100;-79
2022/04/05 14:14:44;;;;;;;12.60;7.72;;;;;;;;;;5070015;28;20081;-79
2022/04/05 14:17:11;;;;;;;13.30;8.90;;;;;;;;;;5069803;28;20071;-80
2022/04/05 14:19:37;;;;;;;17.45;11.27;;;;;;;;;;5069928;28;20044;-77
2022/04/05 14:22:04;;;;;;;11.90;7.13;;;;;;;;;;5070378;28;20032;-78
2022/04/05 14:24:30;;;;;;;12.43;7.80;;;;;;;;;;5070503;28;20025;-79
2022/04/05 14:26:57;;;;;;;11.77;6.38;;;;;;;;;;5071323;28;20032;-78
2022/04/05 14:29:23;;;;;;;13.48;7.50;;;;;;;;;;5071709;28;20056;-81
2022/04/05 14:31:49;;;;;;;14.25;9.15;;;;;;;;;;5066665;28;20040;-75
2022/04/05 14:34:15;;;;;;;15.50;9.75;;;;;;;;;;5067341;28;20024;-79
2022/04/05 14:36:45;;;;;;;13.05;8.20;;;;;;;;;;5072069;28;20051;-79
2022/04/05 14:39:11;;;;;;;12.93;6.70;;;;;;;;;;5071856;28;20062;-79
2022/04/05 14:41:38;;;;;;;10.75;6.22;;;;;;;;;;5071833;28;20025;-80
2022/04/05 14:44:05;;;;;;;16.05;6.82;;;;;;;;;;5070439;28;20116;-80
2022/04/05 14:46:32;;;;;;;13.85;9.25;;;;;;;;;;5071493;28;20036;-77
2022/04/05 14:49:00;;;;;;;12.65;7.30;;;;;;;;;;5071439;28;20115;-81
2022/04/05 14:51:27;;;;;;;13.23;8.45;;;;;;;;;;5071975;28;20483;-75
2022/04/05 14:53:53;;;;;;;10.93;7.00;;;;;;;;;;5071611;28;20390;-78